createdAt,value
2023-01-29T00:02:25.317Z,18.08
2023-01-29T00:04:52.072Z,18.08
2023-01-29T00:07:18.740Z,17.88
2023-01-29T00:09:45.433Z,17.00
2023-01-29T00:12:12.300Z,20.98
2023-01-29T00:14:38.987Z,18.13
2023-01-29T00:17:05.823Z,17.25
2023-01-29T00:19:32.648Z,17.45
2023-01-29T00:21:59.363Z,18.00
2023-01-29T00:24:26.112Z,18.38
2023-01-29T00:26:52.824Z,17.77
2023-01-29T00:29:19.723Z,17.10
2023-01-29T00:31:46.668Z,16.60
2023-01-29T00:34:13.413Z,17.08
2023-01-29T00:36:40.371Z,18.25
2023-01-29T00:39:11.043Z,18.73
2023-01-29T00:41:56.517Z,20.77
2023-01-29T00:44:41.769Z,17.65
2023-01-29T00:47:28.466Z,20.47
2023-01-29T00:49:55.213Z,21.67
2023-01-29T00:52:25.107Z,20.75
2023-01-29T00:54:51.899Z,22.25
2023-01-29T00:57:18.669Z,20.45
2023-01-29T00:59:45.360Z,21.90
2023-01-29T01:02:31.070Z,24.65
2023-01-29T01:04:57.841Z,19.88
2023-01-29T01:07:24.616Z,20.88
2023-01-29T01:10:20.648Z,20.13
2023-01-29T01:12:47.394Z,18.50
2023-01-29T01:15:14.148Z,22.17
2023-01-29T01:17:40.917Z,22.55
2023-01-29T01:20:08.465Z,24.60
2023-01-29T01:22:35.896Z,21.60
2023-01-29T01:25:02.743Z,21.50
2023-01-29T01:27:29.556Z,22.98
2023-01-29T01:29:56.365Z,27.58
2023-01-29T01:32:23.184Z,28.95
2023-01-29T01:34:50.026Z,21.00
2023-01-29T01:37:16.770Z,23.60
2023-01-29T01:39:43.534Z,24.48
2023-01-29T01:42:10.215Z,26.15
2023-01-29T01:44:36.957Z,24.85
2023-01-29T01:47:03.713Z,23.75
2023-01-29T01:49:31.355Z,26.13
2023-01-29T01:51:58.332Z,23.77
2023-01-29T01:54:25.136Z,23.40
2023-01-29T01:56:52.582Z,23.70
2023-01-29T01:59:19.325Z,21.60
2023-01-29T02:01:47.975Z,22.60
2023-01-29T02:04:33.287Z,22.75
2023-01-29T02:07:18.802Z,23.02
2023-01-29T02:09:46.526Z,21.83
2023-01-29T02:12:13.242Z,22.80
2023-01-29T02:14:40.321Z,20.92
2023-01-29T02:17:07.214Z,23.95
2023-01-29T02:19:34.063Z,24.90
2023-01-29T02:22:01.358Z,23.23
2023-01-29T02:24:28.764Z,21.08
2023-01-29T02:26:56.876Z,25.95
2023-01-29T02:29:25.204Z,20.48
2023-01-29T02:31:52.041Z,21.92
2023-01-29T02:34:18.855Z,22.80
2023-01-29T02:36:45.772Z,20.90
2023-01-29T02:39:12.526Z,22.42
2023-01-29T02:41:39.203Z,23.08
2023-01-29T02:44:06.034Z,23.40
2023-01-29T02:46:32.756Z,21.23
2023-01-29T02:48:59.777Z,23.70
2023-01-29T02:51:26.486Z,19.20
2023-01-29T02:53:53.360Z,23.88
2023-01-29T02:56:20.174Z,25.27
2023-01-29T02:58:46.960Z,21.13
2023-01-29T03:01:13.765Z,20.23
2023-01-29T03:03:40.955Z,22.50
2023-01-29T03:06:07.776Z,23.05
2023-01-29T03:08:43.049Z,20.20
2023-01-29T03:11:13.705Z,25.00
2023-01-29T03:13:40.687Z,23.58
2023-01-29T03:16:07.682Z,23.42
2023-01-29T03:18:46.216Z,20.30
2023-01-29T03:21:32.331Z,27.10
2023-01-29T03:24:18.741Z,21.90
2023-01-29T03:27:06.054Z,22.95
2023-01-29T03:29:55.561Z,21.83
2023-01-29T03:32:28.942Z,22.83
2023-01-29T03:34:56.926Z,25.58
2023-01-29T03:37:24.900Z,22.30
2023-01-29T03:39:51.769Z,23.73
2023-01-29T03:42:18.504Z,23.73
2023-01-29T03:44:46.970Z,26.13
2023-01-29T03:47:22.796Z,21.42
2023-01-29T03:49:49.668Z,27.20
2023-01-29T03:52:16.567Z,23.02
2023-01-29T03:54:43.323Z,27.60
2023-01-29T03:57:15.432Z,24.45
2023-01-29T03:59:42.796Z,25.42
2023-01-29T04:02:27.671Z,23.35
2023-01-29T04:04:56.251Z,24.65
2023-01-29T04:07:24.649Z,26.73
2023-01-29T04:10:00.537Z,24.50
2023-01-29T04:12:27.427Z,26.52
2023-01-29T04:14:54.658Z,22.98
2023-01-29T04:17:21.683Z,24.02
2023-01-29T04:20:00.659Z,30.55
2023-01-29T04:22:27.432Z,22.13
2023-01-29T04:24:54.127Z,22.25
2023-01-29T04:27:21.260Z,25.27
2023-01-29T04:29:49.567Z,25.52
2023-01-29T04:32:16.844Z,23.70
2023-01-29T04:34:44.496Z,26.52
2023-01-29T04:37:11.263Z,24.08
2023-01-29T04:39:37.963Z,25.85
2023-01-29T04:42:04.767Z,24.77
2023-01-29T04:44:31.496Z,23.80
2023-01-29T04:46:58.749Z,23.40
2023-01-29T04:49:25.504Z,25.23
2023-01-29T04:51:52.447Z,21.23
2023-01-29T04:54:19.163Z,20.80
2023-01-29T04:56:45.885Z,22.02
2023-01-29T04:59:13.107Z,21.60
2023-01-29T05:01:39.938Z,23.17
2023-01-29T05:04:06.652Z,23.25
2023-01-29T05:06:33.510Z,23.92
2023-01-29T05:09:00.264Z,27.58
2023-01-29T05:11:26.982Z,20.70
2023-01-29T05:13:53.714Z,24.98
2023-01-29T05:16:20.507Z,21.60
2023-01-29T05:18:47.217Z,24.58
2023-01-29T05:21:13.924Z,20.42
2023-01-29T05:23:53.195Z,25.40
2023-01-29T05:26:38.704Z,22.00
2023-01-29T05:29:05.435Z,22.90
2023-01-29T05:31:32.179Z,20.35
2023-01-29T05:33:58.949Z,19.60
2023-01-29T05:36:26.875Z,19.85
2023-01-29T05:38:53.545Z,23.55
2023-01-29T05:41:21.153Z,20.17
2023-01-29T05:43:47.951Z,21.63
2023-01-29T05:46:14.733Z,22.42
2023-01-29T05:48:41.511Z,20.65
2023-01-29T05:51:08.232Z,21.05
2023-01-29T05:53:34.893Z,20.25
2023-01-29T05:56:01.592Z,20.77
2023-01-29T05:58:28.289Z,19.55
2023-01-29T06:00:55.002Z,20.40
2023-01-29T06:03:21.700Z,20.92
2023-01-29T06:05:48.475Z,20.23
2023-01-29T06:08:15.209Z,19.10
2023-01-29T06:10:41.963Z,17.88
2023-01-29T06:13:08.690Z,20.58
2023-01-29T06:15:35.364Z,17.80
2023-01-29T06:18:02.062Z,18.75
2023-01-29T06:20:28.877Z,20.35
2023-01-29T06:22:55.658Z,20.13
2023-01-29T06:25:23.618Z,16.92
2023-01-29T06:27:50.324Z,16.58
2023-01-29T06:30:17.397Z,17.25
2023-01-29T06:32:44.242Z,15.27
2023-01-29T06:35:11.014Z,16.45
2023-01-29T06:37:37.741Z,16.05
2023-01-29T06:40:04.449Z,16.35
2023-01-29T06:42:31.253Z,15.45
2023-01-29T06:44:57.976Z,15.70
2023-01-29T06:47:24.887Z,17.30
2023-01-29T06:49:52.283Z,14.20
2023-01-29T06:52:19.014Z,16.50
2023-01-29T06:54:45.760Z,13.13
2023-01-29T06:57:12.495Z,13.23
2023-01-29T06:59:39.192Z,13.02
2023-01-29T07:02:05.918Z,13.35
2023-01-29T07:04:32.647Z,11.80
2023-01-29T07:06:59.328Z,12.15
2023-01-29T07:09:26.049Z,11.25
2023-01-29T07:11:52.804Z,10.77
2023-01-29T07:14:19.499Z,12.73
2023-01-29T07:16:46.312Z,11.38
2023-01-29T07:19:13.004Z,10.55
2023-01-29T07:21:39.758Z,11.73
2023-01-29T07:24:06.487Z,9.43
2023-01-29T07:26:33.211Z,12.10
2023-01-29T07:28:59.964Z,10.50
2023-01-29T07:31:26.783Z,10.00
2023-01-29T07:33:53.659Z,11.27
2023-01-29T07:36:20.384Z,11.00
2023-01-29T07:38:47.088Z,11.02
2023-01-29T07:41:13.837Z,10.02
2023-01-29T07:43:45.005Z,11.10
2023-01-29T07:46:11.825Z,12.35
2023-01-29T07:48:38.591Z,10.55
2023-01-29T07:51:05.500Z,13.40
2023-01-29T07:53:32.824Z,11.20
2023-01-29T07:55:59.492Z,10.07
2023-01-29T07:58:26.264Z,10.38
2023-01-29T08:00:53.090Z,10.57
2023-01-29T08:03:22.591Z,10.30
2023-01-29T08:05:49.388Z,10.68
2023-01-29T08:08:16.171Z,11.60
2023-01-29T08:10:42.835Z,10.40
2023-01-29T08:13:09.586Z,10.45
2023-01-29T08:15:38.757Z,9.52
2023-01-29T08:18:06.059Z,11.55
2023-01-29T08:20:32.829Z,10.70
2023-01-29T08:22:59.826Z,10.63
2023-01-29T08:25:26.947Z,11.38
2023-01-29T08:27:53.916Z,10.30
2023-01-29T08:30:20.612Z,9.93
2023-01-29T08:32:47.531Z,9.77
2023-01-29T08:35:14.247Z,12.90
2023-01-29T08:37:40.998Z,12.00
2023-01-29T08:40:09.603Z,10.20
2023-01-29T08:42:36.477Z,9.13
2023-01-29T08:45:03.187Z,11.93
2023-01-29T08:47:29.914Z,8.98
2023-01-29T08:49:56.649Z,9.52
2023-01-29T08:52:23.387Z,9.75
2023-01-29T08:54:50.082Z,10.65
2023-01-29T08:57:16.836Z,9.85
2023-01-29T08:59:43.562Z,9.80
2023-01-29T09:02:10.299Z,9.57
2023-01-29T09:04:37.079Z,11.20
2023-01-29T09:07:03.840Z,11.82
2023-01-29T09:09:30.578Z,12.45
2023-01-29T09:11:57.318Z,11.85
2023-01-29T09:14:24.014Z,12.15
2023-01-29T09:16:50.801Z,14.18
2023-01-29T09:19:17.538Z,14.27
2023-01-29T09:21:44.222Z,11.82
2023-01-29T09:24:11.033Z,11.95
2023-01-29T09:26:39.723Z,15.15
2023-01-29T09:29:06.634Z,13.90
2023-01-29T09:31:33.641Z,13.30
2023-01-29T09:34:00.435Z,14.40
2023-01-29T09:36:27.260Z,16.02
2023-01-29T09:38:54.004Z,14.43
2023-01-29T09:41:20.681Z,13.88
2023-01-29T09:43:47.381Z,13.48
2023-01-29T09:46:15.231Z,12.52
2023-01-29T09:48:41.965Z,13.70
2023-01-29T09:51:08.725Z,12.55
2023-01-29T09:53:35.419Z,9.38
2023-01-29T09:56:02.145Z,14.40
2023-01-29T09:58:31.469Z,13.85
2023-01-29T10:00:58.225Z,13.60
2023-01-29T10:03:24.919Z,13.50
2023-01-29T10:05:51.659Z,12.52
2023-01-29T10:08:18.381Z,14.13
2023-01-29T10:10:45.121Z,12.68
2023-01-29T10:13:11.870Z,11.35
2023-01-29T10:15:38.655Z,12.35
2023-01-29T10:18:05.349Z,11.50
2023-01-29T10:20:32.072Z,10.65
2023-01-29T10:22:58.816Z,11.73
2023-01-29T10:25:25.633Z,11.82
2023-01-29T10:27:52.452Z,11.25
2023-01-29T10:30:19.136Z,10.75
2023-01-29T10:32:45.902Z,11.35
2023-01-29T10:35:12.700Z,11.90
2023-01-29T10:37:39.370Z,12.27
2023-01-29T10:40:06.073Z,11.13
2023-01-29T10:42:32.775Z,14.40
2023-01-29T10:44:59.466Z,11.52
2023-01-29T10:47:27.562Z,12.18
2023-01-29T10:49:55.311Z,15.02
2023-01-29T10:52:22.058Z,11.70
2023-01-29T10:54:48.773Z,13.30
2023-01-29T10:57:15.535Z,14.52
2023-01-29T10:59:42.286Z,13.77
2023-01-29T11:02:09.012Z,15.35
2023-01-29T11:04:35.801Z,15.10
2023-01-29T11:07:02.651Z,14.75
2023-01-29T11:09:29.630Z,12.80
2023-01-29T11:11:56.412Z,14.00
2023-01-29T11:14:23.102Z,13.63
2023-01-29T11:16:49.890Z,13.77
2023-01-29T11:19:16.706Z,13.32
2023-01-29T11:21:43.431Z,13.88
2023-01-29T11:24:10.177Z,11.07
2023-01-29T11:26:37.006Z,11.82
2023-01-29T11:29:03.781Z,14.82
2023-01-29T11:31:30.532Z,12.10
2023-01-29T11:33:57.241Z,13.30
2023-01-29T11:36:23.970Z,10.50
2023-01-29T11:38:50.788Z,11.65
2023-01-29T11:41:22.506Z,12.27
2023-01-29T11:43:49.258Z,11.68
2023-01-29T11:46:16.013Z,14.27
2023-01-29T11:48:42.851Z,12.43
2023-01-29T11:51:09.542Z,9.85
2023-01-29T11:53:36.303Z,13.82
2023-01-29T11:56:03.007Z,11.65
2023-01-29T11:58:29.725Z,11.75
2023-01-29T12:00:56.467Z,12.10
2023-01-29T12:03:25.027Z,10.07
2023-01-29T12:05:52.102Z,8.30
2023-01-29T12:08:18.789Z,11.07
2023-01-29T12:10:45.524Z,12.65
2023-01-29T12:13:12.270Z,10.65
2023-01-29T12:15:38.962Z,10.90
2023-01-29T12:18:05.728Z,10.48
2023-01-29T12:20:32.441Z,12.32
2023-01-29T12:22:59.133Z,11.23
2023-01-29T12:25:25.863Z,11.15
2023-01-29T12:27:52.578Z,11.27
2023-01-29T12:30:19.479Z,10.00
2023-01-29T12:32:46.591Z,10.63
2023-01-29T12:35:13.340Z,11.85
2023-01-29T12:37:40.035Z,9.07
2023-01-29T12:40:06.909Z,9.75
2023-01-29T12:42:33.595Z,12.05
2023-01-29T12:45:00.283Z,8.35
2023-01-29T12:47:27.042Z,10.00
2023-01-29T12:49:53.833Z,7.85
2023-01-29T12:52:20.520Z,7.13
2023-01-29T12:54:47.259Z,8.23
2023-01-29T12:57:13.964Z,5.85
2023-01-29T12:59:41.045Z,6.38
2023-01-29T13:02:08.005Z,6.13
2023-01-29T13:04:34.672Z,6.65
2023-01-29T13:07:01.423Z,6.95
2023-01-29T13:09:28.162Z,4.97
2023-01-29T13:11:54.955Z,5.28
2023-01-29T13:14:21.644Z,5.40
2023-01-29T13:16:48.314Z,6.32
2023-01-29T13:19:15.095Z,4.55
2023-01-29T13:21:41.968Z,5.97
2023-01-29T13:24:08.675Z,5.80
2023-01-29T13:26:35.509Z,5.38
2023-01-29T13:29:03.005Z,5.97
2023-01-29T13:31:29.853Z,5.53
2023-01-29T13:33:56.630Z,6.18
2023-01-29T13:36:23.410Z,4.88
2023-01-29T13:38:50.098Z,6.00
2023-01-29T13:41:16.815Z,6.55
2023-01-29T13:43:43.561Z,5.28
2023-01-29T13:46:10.376Z,5.00
2023-01-29T13:48:37.202Z,5.82
2023-01-29T13:51:03.967Z,4.22
2023-01-29T13:53:30.766Z,4.35
2023-01-29T13:55:57.489Z,3.88
2023-01-29T13:58:24.170Z,5.40
2023-01-29T14:00:51.184Z,4.40
2023-01-29T14:03:18.030Z,4.38
2023-01-29T14:05:44.780Z,3.88
2023-01-29T14:08:11.511Z,3.47
2023-01-29T14:10:38.231Z,3.45
2023-01-29T14:13:04.945Z,3.72
2023-01-29T14:15:31.714Z,3.53
2023-01-29T14:17:59.827Z,4.63
2023-01-29T14:20:32.325Z,3.00
2023-01-29T14:23:05.526Z,6.95
2023-01-29T14:25:32.688Z,2.95
2023-01-29T14:27:59.439Z,3.83
2023-01-29T14:30:26.169Z,3.78
2023-01-29T14:32:52.924Z,4.22
2023-01-29T14:35:20.146Z,2.92
2023-01-29T14:37:46.880Z,4.72
2023-01-29T14:40:13.572Z,3.42
2023-01-29T14:42:40.377Z,3.10
2023-01-29T14:45:07.321Z,2.80
2023-01-29T14:47:34.041Z,2.80
2023-01-29T14:50:00.909Z,3.50
2023-01-29T14:52:27.653Z,3.28
2023-01-29T14:54:54.407Z,2.90
2023-01-29T14:57:21.078Z,3.45
2023-01-29T14:59:47.845Z,3.45
2023-01-29T15:02:14.617Z,4.38
2023-01-29T15:04:41.381Z,3.65
2023-01-29T15:07:08.082Z,2.92
2023-01-29T15:09:36.885Z,3.75
2023-01-29T15:12:03.766Z,3.63
2023-01-29T15:14:30.605Z,3.88
2023-01-29T15:16:57.497Z,3.88
2023-01-29T15:19:24.230Z,4.05
2023-01-29T15:21:50.952Z,5.78
2023-01-29T15:24:17.664Z,2.78
2023-01-29T15:26:44.421Z,4.07
2023-01-29T15:29:11.192Z,4.05
2023-01-29T15:31:38.033Z,4.78
2023-01-29T15:34:04.780Z,3.88
2023-01-29T15:36:31.512Z,4.18
2023-01-29T15:38:58.199Z,2.92
2023-01-29T15:41:24.913Z,3.30
2023-01-29T15:43:51.692Z,4.30
2023-01-29T15:46:19.171Z,3.95
2023-01-29T15:48:45.994Z,4.30
2023-01-29T15:51:12.663Z,4.93
2023-01-29T15:53:39.327Z,3.95
2023-01-29T15:56:06.047Z,4.63
2023-01-29T15:58:32.762Z,4.07
2023-01-29T16:00:59.444Z,4.95
2023-01-29T16:03:26.433Z,3.92
2023-01-29T16:05:53.166Z,4.07
2023-01-29T16:08:19.873Z,4.05
2023-01-29T16:10:47.345Z,7.32
2023-01-29T16:13:14.034Z,5.20
2023-01-29T16:15:40.934Z,4.28
2023-01-29T16:18:07.669Z,5.88
2023-01-29T16:20:34.380Z,4.45
2023-01-29T16:23:01.119Z,3.33
2023-01-29T16:25:27.821Z,5.68
2023-01-29T16:27:54.545Z,3.90
2023-01-29T16:30:21.305Z,4.22
2023-01-29T16:32:47.986Z,5.30
2023-01-29T16:35:14.983Z,3.10
2023-01-29T16:37:41.814Z,3.95
2023-01-29T16:40:08.809Z,3.83
2023-01-29T16:42:36.019Z,4.03
2023-01-29T16:45:02.803Z,2.92
2023-01-29T16:47:29.729Z,3.92
2023-01-29T16:49:56.431Z,4.78
2023-01-29T16:52:23.105Z,3.35
2023-01-29T16:54:49.867Z,4.82
2023-01-29T16:57:16.606Z,4.05
2023-01-29T16:59:43.376Z,3.50
2023-01-29T17:02:10.084Z,4.03
2023-01-29T17:04:36.792Z,2.65
2023-01-29T17:07:03.478Z,3.65
2023-01-29T17:09:30.257Z,2.85
2023-01-29T17:11:57.032Z,3.60
2023-01-29T17:14:23.722Z,3.67
2023-01-29T17:16:50.529Z,2.35
2023-01-29T17:19:17.798Z,3.42
2023-01-29T17:21:44.571Z,3.38
2023-01-29T17:24:11.361Z,3.13
2023-01-29T17:26:38.204Z,2.80
2023-01-29T17:29:04.924Z,2.60
2023-01-29T17:31:31.806Z,3.85
2023-01-29T17:33:58.549Z,3.03
2023-01-29T17:36:25.309Z,4.30
2023-01-29T17:38:51.993Z,3.30
2023-01-29T17:41:19.098Z,3.13
2023-01-29T17:43:45.884Z,2.95
2023-01-29T17:46:12.562Z,4.65
2023-01-29T17:48:39.254Z,4.32
2023-01-29T17:51:05.972Z,2.65
2023-01-29T17:53:44.886Z,2.40
2023-01-29T17:56:12.553Z,3.33
2023-01-29T17:58:39.320Z,4.15
2023-01-29T18:01:06.030Z,3.67
2023-01-29T18:03:32.803Z,5.03
2023-01-29T18:05:59.611Z,3.45
2023-01-29T18:08:26.321Z,3.70
2023-01-29T18:10:53.047Z,3.00
2023-01-29T18:13:19.754Z,2.97
2023-01-29T18:15:46.460Z,3.67
2023-01-29T18:18:13.641Z,2.92
2023-01-29T18:20:40.462Z,2.15
2023-01-29T18:23:07.213Z,2.28
2023-01-29T18:25:33.946Z,2.33
2023-01-29T18:28:00.680Z,2.38
2023-01-29T18:30:27.481Z,3.35
2023-01-29T18:32:54.581Z,4.07
2023-01-29T18:35:21.371Z,3.03
2023-01-29T18:37:48.111Z,2.33
2023-01-29T18:40:17.207Z,3.28
2023-01-29T18:42:44.016Z,4.03
2023-01-29T18:45:10.769Z,6.53
2023-01-29T18:47:37.634Z,3.28
2023-01-29T18:50:04.322Z,3.70
2023-01-29T18:52:31.055Z,11.27
2023-01-29T18:54:57.781Z,15.32
2023-01-29T18:58:27.446Z,6.47
2023-01-29T19:00:11.361Z,7.35
2023-01-29T19:02:38.053Z,6.28
2023-01-29T19:05:04.788Z,2.92
2023-01-29T19:07:31.636Z,3.60
2023-01-29T19:09:58.378Z,3.25
2023-01-29T19:12:25.107Z,4.25
2023-01-29T19:14:51.851Z,4.80
2023-01-29T19:17:18.670Z,2.53
2023-01-29T19:19:45.365Z,3.58
2023-01-29T19:22:12.059Z,3.50
2023-01-29T19:24:39.093Z,4.18
2023-01-29T19:27:06.655Z,2.40
2023-01-29T19:29:33.454Z,3.70
2023-01-29T19:32:00.172Z,8.50
2023-01-29T19:34:26.861Z,6.30
2023-01-29T19:36:53.667Z,4.82
2023-01-29T19:39:20.376Z,10.35
2023-01-29T19:41:47.081Z,12.60
2023-01-29T19:44:13.828Z,8.13
2023-01-29T19:46:40.599Z,6.18
2023-01-29T19:49:07.433Z,6.63
2023-01-29T19:51:34.175Z,4.03
2023-01-29T19:54:00.922Z,5.43
2023-01-29T19:56:28.479Z,13.40
2023-01-29T19:58:57.510Z,16.70
2023-01-29T20:01:30.461Z,9.55
2023-01-29T20:03:57.138Z,11.73
2023-01-29T20:06:24.018Z,4.93
2023-01-29T20:08:50.920Z,18.80
2023-01-29T20:11:17.597Z,6.07
2023-01-29T20:13:44.616Z,4.25
2023-01-29T20:16:11.372Z,7.15
2023-01-29T20:18:38.147Z,19.27
2023-01-29T20:21:04.856Z,35.05
2023-01-29T20:23:38.232Z,25.90
2023-01-29T20:26:05.418Z,24.20
2023-01-29T20:28:32.128Z,19.95
2023-01-29T20:30:59.089Z,5.68
2023-01-29T20:33:26.025Z,4.68
2023-01-29T20:35:52.713Z,5.57
2023-01-29T20:38:19.438Z,5.82
2023-01-29T20:40:46.134Z,4.85
2023-01-29T20:43:12.985Z,5.10
2023-01-29T20:45:39.744Z,5.43
2023-01-29T20:48:08.028Z,6.47
2023-01-29T20:50:34.731Z,3.63
2023-01-29T20:53:01.391Z,4.10
2023-01-29T20:55:28.222Z,4.72
2023-01-29T20:58:06.446Z,4.03
2023-01-29T21:00:33.607Z,4.55
2023-01-29T21:03:00.434Z,5.63
2023-01-29T21:05:27.133Z,3.90
2023-01-29T21:07:53.900Z,3.83
2023-01-29T21:10:20.637Z,5.18
2023-01-29T21:12:47.328Z,3.85
2023-01-29T21:15:14.068Z,7.10
2023-01-29T21:17:40.810Z,4.28
2023-01-29T21:20:08.348Z,5.88
2023-01-29T21:22:35.125Z,4.82
2023-01-29T21:25:01.856Z,4.75
2023-01-29T21:27:28.621Z,5.40
2023-01-29T21:29:55.430Z,3.83
2023-01-29T21:32:22.179Z,4.45
2023-01-29T21:34:50.517Z,5.68
2023-01-29T21:37:18.364Z,6.57
2023-01-29T21:39:46.026Z,6.10
2023-01-29T21:42:31.643Z,4.75
2023-01-29T21:44:58.464Z,7.65
2023-01-29T21:47:25.198Z,5.68
2023-01-29T21:49:51.945Z,3.60
2023-01-29T21:52:18.673Z,6.05
2023-01-29T21:54:48.792Z,8.88
2023-01-29T21:57:15.640Z,5.35
2023-01-29T21:59:42.436Z,9.95
2023-01-29T22:02:09.209Z,6.30
2023-01-29T22:04:36.118Z,3.88
2023-01-29T22:07:02.832Z,5.03
2023-01-29T22:09:29.705Z,7.68
2023-01-29T22:11:56.523Z,5.85
2023-01-29T22:14:23.265Z,5.50
2023-01-29T22:16:50.117Z,9.25
2023-01-29T22:19:16.885Z,6.72
2023-01-29T22:21:43.798Z,5.95
2023-01-29T22:24:10.494Z,6.22
2023-01-29T22:26:37.339Z,5.05
2023-01-29T22:29:04.114Z,4.93
2023-01-29T22:31:30.817Z,7.78
2023-01-29T22:33:57.588Z,7.03
2023-01-29T22:36:24.272Z,6.15
2023-01-29T22:38:51.018Z,6.68
2023-01-29T22:41:17.798Z,5.40
2023-01-29T22:43:44.513Z,6.53
2023-01-29T22:46:11.330Z,7.50
2023-01-29T22:48:38.065Z,5.78
2023-01-29T22:51:10.802Z,3.78
2023-01-29T22:53:38.157Z,4.78
2023-01-29T22:56:04.856Z,5.53
2023-01-29T22:58:31.624Z,5.15
2023-01-29T23:00:58.358Z,5.70
2023-01-29T23:03:25.074Z,5.47
2023-01-29T23:05:51.777Z,7.93
2023-01-29T23:08:18.615Z,7.70
2023-01-29T23:10:45.338Z,7.53
2023-01-29T23:13:12.015Z,7.43
2023-01-29T23:15:38.755Z,7.38
2023-01-29T23:18:05.562Z,5.63
2023-01-29T23:20:32.358Z,5.32
2023-01-29T23:22:59.102Z,7.85
2023-01-29T23:25:48.766Z,7.22
2023-01-29T23:28:15.418Z,6.72
2023-01-29T23:30:42.173Z,8.75
2023-01-29T23:33:12.024Z,6.35
2023-01-29T23:35:39.050Z,7.35
2023-01-29T23:38:08.121Z,14.30
2023-01-29T23:40:34.828Z,8.75
2023-01-29T23:43:01.507Z,12.00
2023-01-29T23:45:28.246Z,9.13
2023-01-29T23:47:54.935Z,9.57
2023-01-29T23:50:21.649Z,8.65
2023-01-29T23:52:48.389Z,9.73
2023-01-29T23:55:15.117Z,9.75
2023-01-29T23:57:41.815Z,9.45
